Terminal Aerodrome Forecast
Issued by NWS

Home | Current Version | Previous Version | Text Only | Print | Product List | Glossary Off
Versions: 1 2 3 4 5 6 7 8 9 10 11 12 13 14 15 16 17 18 19 20 21 22 23 24 25 26 27 28 29 30

000
FTUS42 KTBW 272339
TAFRSW
TAF
KRSW 272339Z 2800/2824 22009KT P6SM VCSH FEW025 BKN150
     FM280100 21006KT P6SM FEW025 BKN150
     FM280900 VRB03KT P6SM VCSH SCT025 BKN200
     FM281400 22006KT 6SM SHRA SCT025 BKN200
     FM281700 25011KT P6SM SHRA SCT025 BKN200=

USA.gov is the U.S. government's official web portal to all federal, state and local government web resources and services.